sensor_id;sensor_type;location;lat;lon;timestamp;P1;durP1;ratioP1;P2;durP2;ratioP2
3225;SDS011;1625;49.884;8.666;2023-02-13T00:00:15;11.57;;;10.30;;
3225;SDS011;1625;49.884;8.666;2023-02-13T00:02:43;11.90;;;9.20;;
3225;SDS011;1625;49.884;8.666;2023-02-13T00:05:09;12.33;;;10.10;;
3225;SDS011;1625;49.884;8.666;2023-02-13T00:07:34;11.67;;;10.47;;
3225;SDS011;1625;49.884;8.666;2023-02-13T00:10:00;12.20;;;10.70;;
3225;SDS011;1625;49.884;8.666;2023-02-13T00:12:25;11.50;;;10.30;;
3225;SDS011;1625;49.884;8.666;2023-02-13T00:14:51;11.50;;;10.40;;
3225;SDS011;1625;49.884;8.666;2023-02-13T00:17:16;10.97;;;9.80;;
3225;SDS011;1625;49.884;8.666;2023-02-13T00:19:42;11.60;;;10.40;;
3225;SDS011;1625;49.884;8.666;2023-02-13T00:22:07;13.47;;;10.60;;
3225;SDS011;1625;49.884;8.666;2023-02-13T00:24:33;12.40;;;11.20;;
3225;SDS011;1625;49.884;8.666;2023-02-13T00:26:59;11.77;;;9.90;;
3225;SDS011;1625;49.884;8.666;2023-02-13T00:29:24;12.53;;;10.67;;
3225;SDS011;1625;49.884;8.666;2023-02-13T00:31:50;11.97;;;10.70;;
3225;SDS011;1625;49.884;8.666;2023-02-13T00:34:15;11.40;;;10.07;;
3225;SDS011;1625;49.884;8.666;2023-02-13T00:36:41;10.77;;;9.67;;
3225;SDS011;1625;49.884;8.666;2023-02-13T00:39:07;12.10;;;10.90;;
3225;SDS011;1625;49.884;8.666;2023-02-13T00:41:35;12.10;;;10.20;;
3225;SDS011;1625;49.884;8.666;2023-02-13T00:44:01;12.57;;;10.73;;
3225;SDS011;1625;49.884;8.666;2023-02-13T00:46:27;12.63;;;10.20;;
3225;SDS011;1625;49.884;8.666;2023-02-13T00:48:52;11.90;;;10.50;;
3225;SDS011;1625;49.884;8.666;2023-02-13T00:51:18;12.20;;;10.90;;
3225;SDS011;1625;49.884;8.666;2023-02-13T00:53:43;12.30;;;10.30;;
3225;SDS011;1625;49.884;8.666;2023-02-13T00:56:09;11.00;;;9.70;;
3225;SDS011;1625;49.884;8.666;2023-02-13T00:58:34;11.53;;;9.90;;
3225;SDS011;1625;49.884;8.666;2023-02-13T01:01:00;12.60;;;11.20;;
3225;SDS011;1625;49.884;8.666;2023-02-13T01:03:25;13.83;;;10.77;;
3225;SDS011;1625;49.884;8.666;2023-02-13T01:05:51;13.53;;;11.80;;
3225;SDS011;1625;49.884;8.666;2023-02-13T01:08:17;11.87;;;10.30;;
3225;SDS011;1625;49.884;8.666;2023-02-13T01:10:45;12.53;;;11.03;;
3225;SDS011;1625;49.884;8.666;2023-02-13T01:13:11;12.83;;;10.70;;
3225;SDS011;1625;49.884;8.666;2023-02-13T01:15:39;12.60;;;11.30;;
3225;SDS011;1625;49.884;8.666;2023-02-13T01:18:04;12.20;;;10.30;;
3225;SDS011;1625;49.884;8.666;2023-02-13T01:20:30;13.67;;;11.80;;
3225;SDS011;1625;49.884;8.666;2023-02-13T01:22:56;12.40;;;10.90;;
3225;SDS011;1625;49.884;8.666;2023-02-13T01:25:22;13.13;;;10.33;;
3225;SDS011;1625;49.884;8.666;2023-02-13T01:27:48;12.13;;;10.93;;
3225;SDS011;1625;49.884;8.666;2023-02-13T01:30:14;13.70;;;11.33;;
3225;SDS011;1625;49.884;8.666;2023-02-13T01:32:42;12.93;;;11.63;;
3225;SDS011;1625;49.884;8.666;2023-02-13T01:35:10;13.43;;;11.60;;
3225;SDS011;1625;49.884;8.666;2023-02-13T01:37:36;14.00;;;11.70;;
3225;SDS011;1625;49.884;8.666;2023-02-13T01:40:03;14.47;;;11.20;;
3225;SDS011;1625;49.884;8.666;2023-02-13T01:42:31;16.53;;;11.20;;
3225;SDS011;1625;49.884;8.666;2023-02-13T01:45:05;13.33;;;11.37;;
3225;SDS011;1625;49.884;8.666;2023-02-13T01:47:44;14.90;;;12.17;;
3225;SDS011;1625;49.884;8.666;2023-02-13T01:50:32;12.50;;;11.00;;
3225;SDS011;1625;49.884;8.666;2023-02-13T01:53:10;14.00;;;11.90;;
3225;SDS011;1625;49.884;8.666;2023-02-13T01:55:57;13.77;;;11.30;;
3225;SDS011;1625;49.884;8.666;2023-02-13T01:58:28;15.00;;;10.73;;
3225;SDS011;1625;49.884;8.666;2023-02-13T02:00:57;13.37;;;11.60;;
3225;SDS011;1625;49.884;8.666;2023-02-13T02:03:26;14.43;;;11.83;;
3225;SDS011;1625;49.884;8.666;2023-02-13T02:05:59;14.10;;;11.50;;
3225;SDS011;1625;49.884;8.666;2023-02-13T02:08:26;16.80;;;12.30;;
3225;SDS011;1625;49.884;8.666;2023-02-13T02:10:54;16.63;;;12.17;;
3225;SDS011;1625;49.884;8.666;2023-02-13T02:13:22;14.07;;;12.30;;
3225;SDS011;1625;49.884;8.666;2023-02-13T02:15:47;16.43;;;13.87;;
3225;SDS011;1625;49.884;8.666;2023-02-13T02:18:21;15.90;;;12.23;;
3225;SDS011;1625;49.884;8.666;2023-02-13T02:20:58;16.00;;;12.13;;
3225;SDS011;1625;49.884;8.666;2023-02-13T02:35:35;16.93;;;13.90;;
3225;SDS011;1625;49.884;8.666;2023-02-13T02:38:17;14.97;;;12.63;;
3225;SDS011;1625;49.884;8.666;2023-02-13T02:43:43;16.50;;;13.00;;
3225;SDS011;1625;49.884;8.666;2023-02-13T02:46:22;17.53;;;12.27;;
3225;SDS011;1625;49.884;8.666;2023-02-13T02:48:56;14.67;;;11.83;;
3225;SDS011;1625;49.884;8.666;2023-02-13T02:54:15;19.40;;;13.90;;
3225;SDS011;1625;49.884;8.666;2023-02-13T02:57:12;18.00;;;12.37;;
3225;SDS011;1625;49.884;8.666;2023-02-13T02:59:45;16.87;;;12.30;;
3225;SDS011;1625;49.884;8.666;2023-02-13T03:02:31;16.60;;;12.83;;
3225;SDS011;1625;49.884;8.666;2023-02-13T03:05:21;19.20;;;13.60;;
3225;SDS011;1625;49.884;8.666;2023-02-13T03:08:12;18.70;;;13.83;;
3225;SDS011;1625;49.884;8.666;2023-02-13T03:10:38;19.20;;;14.33;;
3225;SDS011;1625;49.884;8.666;2023-02-13T03:13:30;18.53;;;15.13;;
3225;SDS011;1625;49.884;8.666;2023-02-13T03:16:03;18.23;;;13.63;;
3225;SDS011;1625;49.884;8.666;2023-02-13T03:18:52;17.37;;;14.30;;
3225;SDS011;1625;49.884;8.666;2023-02-13T03:21:58;16.70;;;13.10;;
3225;SDS011;1625;49.884;8.666;2023-02-13T03:27:50;19.57;;;13.40;;
3225;SDS011;1625;49.884;8.666;2023-02-13T03:33:35;16.87;;;12.30;;
3225;SDS011;1625;49.884;8.666;2023-02-13T03:36:26;14.90;;;11.13;;
3225;SDS011;1625;49.884;8.666;2023-02-13T03:41:59;15.20;;;10.83;;
3225;SDS011;1625;49.884;8.666;2023-02-13T03:44:30;16.13;;;11.10;;
3225;SDS011;1625;49.884;8.666;2023-02-13T03:47:09;14.87;;;10.57;;
3225;SDS011;1625;49.884;8.666;2023-02-13T03:49:42;15.73;;;11.00;;
3225;SDS011;1625;49.884;8.666;2023-02-13T03:52:49;15.50;;;11.27;;
3225;SDS011;1625;49.884;8.666;2023-02-13T03:55:20;13.07;;;10.17;;
3225;SDS011;1625;49.884;8.666;2023-02-13T03:58:14;14.37;;;10.93;;
3225;SDS011;1625;49.884;8.666;2023-02-13T04:01:02;13.07;;;10.40;;
3225;SDS011;1625;49.884;8.666;2023-02-13T04:03:34;14.40;;;12.40;;
3225;SDS011;1625;49.884;8.666;2023-02-13T04:06:14;14.40;;;11.07;;
3225;SDS011;1625;49.884;8.666;2023-02-13T04:08:43;14.13;;;11.40;;
3225;SDS011;1625;49.884;8.666;2023-02-13T04:13:44;15.70;;;12.13;;
3225;SDS011;1625;49.884;8.666;2023-02-13T04:16:20;20.17;;;11.60;;
3225;SDS011;1625;49.884;8.666;2023-02-13T04:18:57;15.93;;;11.60;;
3225;SDS011;1625;49.884;8.666;2023-02-13T04:21:25;14.83;;;11.73;;
3225;SDS011;1625;49.884;8.666;2023-02-13T04:23:51;16.43;;;11.97;;
3225;SDS011;1625;49.884;8.666;2023-02-13T04:26:17;14.17;;;11.90;;
3225;SDS011;1625;49.884;8.666;2023-02-13T04:28:46;13.63;;;10.10;;
3225;SDS011;1625;49.884;8.666;2023-02-13T04:31:11;16.97;;;11.67;;
3225;SDS011;1625;49.884;8.666;2023-02-13T04:33:37;18.03;;;11.57;;
3225;SDS011;1625;49.884;8.666;2023-02-13T04:36:03;17.03;;;12.33;;
3225;SDS011;1625;49.884;8.666;2023-02-13T04:38:28;16.37;;;12.83;;
3225;SDS011;1625;49.884;8.666;2023-02-13T04:40:54;19.17;;;12.43;;
3225;SDS011;1625;49.884;8.666;2023-02-13T04:43:20;19.40;;;13.13;;
3225;SDS011;1625;49.884;8.666;2023-02-13T04:45:49;18.10;;;12.60;;
3225;SDS011;1625;49.884;8.666;2023-02-13T04:48:15;18.80;;;12.83;;
3225;SDS011;1625;49.884;8.666;2023-02-13T04:50:41;18.20;;;13.40;;
3225;SDS011;1625;49.884;8.666;2023-02-13T04:53:06;13.60;;;11.47;;
3225;SDS011;1625;49.884;8.666;2023-02-13T04:55:32;19.13;;;13.27;;
3225;SDS011;1625;49.884;8.666;2023-02-13T04:57:57;20.27;;;13.47;;
3225;SDS011;1625;49.884;8.666;2023-02-13T05:00:23;17.70;;;12.43;;
3225;SDS011;1625;49.884;8.666;2023-02-13T05:02:51;18.03;;;12.27;;
3225;SDS011;1625;49.884;8.666;2023-02-13T05:05:17;19.83;;;13.13;;
3225;SDS011;1625;49.884;8.666;2023-02-13T05:07:43;16.93;;;12.70;;
3225;SDS011;1625;49.884;8.666;2023-02-13T05:10:09;19.50;;;13.70;;
3225;SDS011;1625;49.884;8.666;2023-02-13T05:12:35;17.30;;;13.23;;
3225;SDS011;1625;49.884;8.666;2023-02-13T05:15:01;19.23;;;12.93;;
3225;SDS011;1625;49.884;8.666;2023-02-13T05:17:26;21.43;;;13.13;;
3225;SDS011;1625;49.884;8.666;2023-02-13T05:19:52;17.53;;;12.57;;
3225;SDS011;1625;49.884;8.666;2023-02-13T05:22:17;18.13;;;12.07;;
3225;SDS011;1625;49.884;8.666;2023-02-13T05:25:02;18.73;;;11.77;;
3225;SDS011;1625;49.884;8.666;2023-02-13T05:27:28;18.40;;;11.20;;
3225;SDS011;1625;49.884;8.666;2023-02-13T05:29:53;16.37;;;11.87;;
3225;SDS011;1625;49.884;8.666;2023-02-13T05:32:19;16.13;;;11.50;;
3225;SDS011;1625;49.884;8.666;2023-02-13T05:34:44;17.90;;;12.43;;
3225;SDS011;1625;49.884;8.666;2023-02-13T05:37:10;17.13;;;11.60;;
3225;SDS011;1625;49.884;8.666;2023-02-13T05:39:35;15.17;;;11.00;;
3225;SDS011;1625;49.884;8.666;2023-02-13T05:42:01;17.43;;;12.63;;
3225;SDS011;1625;49.884;8.666;2023-02-13T05:44:28;19.27;;;12.13;;
3225;SDS011;1625;49.884;8.666;2023-02-13T05:46:54;15.63;;;12.27;;
3225;SDS011;1625;49.884;8.666;2023-02-13T05:49:20;14.97;;;11.07;;
3225;SDS011;1625;49.884;8.666;2023-02-13T05:51:46;21.00;;;13.20;;
3225;SDS011;1625;49.884;8.666;2023-02-13T05:54:12;16.50;;;11.97;;
3225;SDS011;1625;49.884;8.666;2023-02-13T05:56:38;18.23;;;12.57;;
3225;SDS011;1625;49.884;8.666;2023-02-13T05:59:04;19.20;;;13.60;;
3225;SDS011;1625;49.884;8.666;2023-02-13T06:01:29;17.67;;;13.17;;
3225;SDS011;1625;49.884;8.666;2023-02-13T06:03:55;23.70;;;14.47;;
3225;SDS011;1625;49.884;8.666;2023-02-13T06:06:20;22.13;;;13.80;;
3225;SDS011;1625;49.884;8.666;2023-02-13T06:08:46;20.93;;;13.50;;
3225;SDS011;1625;49.884;8.666;2023-02-13T06:11:12;16.47;;;12.13;;
3225;SDS011;1625;49.884;8.666;2023-02-13T06:13:38;19.53;;;13.77;;
3225;SDS011;1625;49.884;8.666;2023-02-13T06:16:07;18.97;;;12.50;;
3225;SDS011;1625;49.884;8.666;2023-02-13T06:18:33;17.47;;;12.60;;
3225;SDS011;1625;49.884;8.666;2023-02-13T06:20:59;20.30;;;12.93;;
3225;SDS011;1625;49.884;8.666;2023-02-13T06:23:26;16.77;;;11.60;;
3225;SDS011;1625;49.884;8.666;2023-02-13T06:25:52;15.33;;;11.57;;
3225;SDS011;1625;49.884;8.666;2023-02-13T06:28:17;21.53;;;13.27;;
3225;SDS011;1625;49.884;8.666;2023-02-13T06:30:42;20.13;;;13.37;;
3225;SDS011;1625;49.884;8.666;2023-02-13T06:33:08;16.97;;;12.70;;
3225;SDS011;1625;49.884;8.666;2023-02-13T06:35:34;17.37;;;12.70;;
3225;SDS011;1625;49.884;8.666;2023-02-13T06:37:59;18.10;;;13.30;;
3225;SDS011;1625;49.884;8.666;2023-02-13T06:40:25;25.00;;;15.10;;
3225;SDS011;1625;49.884;8.666;2023-02-13T06:42:50;18.00;;;12.93;;
3225;SDS011;1625;49.884;8.666;2023-02-13T06:45:16;20.00;;;12.53;;
3225;SDS011;1625;49.884;8.666;2023-02-13T06:47:42;18.60;;;12.57;;
3225;SDS011;1625;49.884;8.666;2023-02-13T06:50:09;18.53;;;13.47;;
3225;SDS011;1625;49.884;8.666;2023-02-13T06:52:36;18.77;;;12.43;;
3225;SDS011;1625;49.884;8.666;2023-02-13T06:55:01;15.87;;;12.00;;
3225;SDS011;1625;49.884;8.666;2023-02-13T06:57:27;15.53;;;11.10;;
3225;SDS011;1625;49.884;8.666;2023-02-13T06:59:56;15.73;;;11.17;;
3225;SDS011;1625;49.884;8.666;2023-02-13T07:02:29;16.53;;;12.50;;
3225;SDS011;1625;49.884;8.666;2023-02-13T07:04:54;14.70;;;12.07;;
3225;SDS011;1625;49.884;8.666;2023-02-13T07:07:20;15.77;;;11.27;;
3225;SDS011;1625;49.884;8.666;2023-02-13T07:09:45;16.50;;;12.80;;
3225;SDS011;1625;49.884;8.666;2023-02-13T07:12:11;16.07;;;12.43;;
3225;SDS011;1625;49.884;8.666;2023-02-13T07:14:36;17.03;;;12.70;;
3225;SDS011;1625;49.884;8.666;2023-02-13T07:17:02;17.30;;;12.33;;
3225;SDS011;1625;49.884;8.666;2023-02-13T07:19:27;17.00;;;11.97;;
3225;SDS011;1625;49.884;8.666;2023-02-13T07:21:53;18.07;;;11.90;;
3225;SDS011;1625;49.884;8.666;2023-02-13T07:24:18;15.07;;;11.43;;
3225;SDS011;1625;49.884;8.666;2023-02-13T07:26:44;17.30;;;12.00;;
3225;SDS011;1625;49.884;8.666;2023-02-13T07:29:09;17.13;;;12.73;;
3225;SDS011;1625;49.884;8.666;2023-02-13T07:31:51;16.50;;;11.80;;
3225;SDS011;1625;49.884;8.666;2023-02-13T07:34:17;18.27;;;12.80;;
3225;SDS011;1625;49.884;8.666;2023-02-13T07:36:42;17.67;;;13.17;;
3225;SDS011;1625;49.884;8.666;2023-02-13T07:39:08;15.10;;;12.33;;
3225;SDS011;1625;49.884;8.666;2023-02-13T07:41:33;16.87;;;12.33;;
3225;SDS011;1625;49.884;8.666;2023-02-13T07:43:59;15.33;;;12.13;;
3225;SDS011;1625;49.884;8.666;2023-02-13T07:46:24;16.90;;;12.90;;
3225;SDS011;1625;49.884;8.666;2023-02-13T07:48:51;15.20;;;11.63;;
3225;SDS011;1625;49.884;8.666;2023-02-13T07:51:17;14.77;;;10.60;;
3225;SDS011;1625;49.884;8.666;2023-02-13T07:53:42;16.07;;;11.53;;
3225;SDS011;1625;49.884;8.666;2023-02-13T07:56:08;16.63;;;12.07;;
3225;SDS011;1625;49.884;8.666;2023-02-13T07:58:35;15.97;;;11.07;;
3225;SDS011;1625;49.884;8.666;2023-02-13T08:01:08;17.53;;;12.17;;
3225;SDS011;1625;49.884;8.666;2023-02-13T08:03:35;12.93;;;9.90;;
3225;SDS011;1625;49.884;8.666;2023-02-13T08:06:01;15.13;;;11.67;;
3225;SDS011;1625;49.884;8.666;2023-02-13T08:08:27;15.30;;;10.70;;
3225;SDS011;1625;49.884;8.666;2023-02-13T08:10:53;13.47;;;10.67;;
3225;SDS011;1625;49.884;8.666;2023-02-13T08:13:38;12.80;;;10.80;;
3225;SDS011;1625;49.884;8.666;2023-02-13T08:16:04;14.17;;;11.10;;
3225;SDS011;1625;49.884;8.666;2023-02-13T08:18:30;14.10;;;10.77;;
3225;SDS011;1625;49.884;8.666;2023-02-13T08:20:55;15.17;;;10.60;;
3225;SDS011;1625;49.884;8.666;2023-02-13T08:23:21;14.33;;;10.17;;
3225;SDS011;1625;49.884;8.666;2023-02-13T08:25:47;12.43;;;10.17;;
3225;SDS011;1625;49.884;8.666;2023-02-13T08:28:14;12.60;;;9.30;;
3225;SDS011;1625;49.884;8.666;2023-02-13T08:30:40;13.30;;;10.37;;
3225;SDS011;1625;49.884;8.666;2023-02-13T08:33:05;13.30;;;10.60;;
3225;SDS011;1625;49.884;8.666;2023-02-13T08:35:31;12.47;;;10.50;;
3225;SDS011;1625;49.884;8.666;2023-02-13T08:38:00;13.37;;;11.60;;
3225;SDS011;1625;49.884;8.666;2023-02-13T08:40:26;12.90;;;10.37;;
3225;SDS011;1625;49.884;8.666;2023-02-13T08:42:57;11.13;;;9.23;;
3225;SDS011;1625;49.884;8.666;2023-02-13T08:45:27;12.23;;;9.63;;
3225;SDS011;1625;49.884;8.666;2023-02-13T08:47:59;12.30;;;10.30;;
3225;SDS011;1625;49.884;8.666;2023-02-13T08:50:25;12.20;;;9.83;;
3225;SDS011;1625;49.884;8.666;2023-02-13T08:52:51;10.80;;;9.53;;
3225;SDS011;1625;49.884;8.666;2023-02-13T08:55:17;11.07;;;8.80;;
3225;SDS011;1625;49.884;8.666;2023-02-13T08:57:43;11.27;;;10.07;;
3225;SDS011;1625;49.884;8.666;2023-02-13T09:00:09;13.70;;;11.33;;
3225;SDS011;1625;49.884;8.666;2023-02-13T09:02:35;11.57;;;9.80;;
3225;SDS011;1625;49.884;8.666;2023-02-13T09:05:00;11.13;;;9.43;;
3225;SDS011;1625;49.884;8.666;2023-02-13T09:07:26;11.00;;;9.07;;
3225;SDS011;1625;49.884;8.666;2023-02-13T09:09:52;10.97;;;9.30;;
3225;SDS011;1625;49.884;8.666;2023-02-13T09:12:17;14.13;;;10.33;;
3225;SDS011;1625;49.884;8.666;2023-02-13T09:14:43;12.57;;;10.57;;
3225;SDS011;1625;49.884;8.666;2023-02-13T09:17:08;13.30;;;10.30;;
3225;SDS011;1625;49.884;8.666;2023-02-13T09:19:34;13.70;;;10.80;;
3225;SDS011;1625;49.884;8.666;2023-02-13T09:21:59;11.20;;;9.73;;
3225;SDS011;1625;49.884;8.666;2023-02-13T09:24:25;13.50;;;9.63;;
3225;SDS011;1625;49.884;8.666;2023-02-13T09:26:51;12.17;;;10.23;;
3225;SDS011;1625;49.884;8.666;2023-02-13T09:29:16;12.87;;;10.80;;
3225;SDS011;1625;49.884;8.666;2023-02-13T09:31:42;13.80;;;10.23;;
3225;SDS011;1625;49.884;8.666;2023-02-13T09:34:07;11.27;;;10.07;;
3225;SDS011;1625;49.884;8.666;2023-02-13T09:36:33;12.30;;;10.10;;
3225;SDS011;1625;49.884;8.666;2023-02-13T09:39:00;11.80;;;10.60;;
3225;SDS011;1625;49.884;8.666;2023-02-13T09:41:35;12.77;;;11.07;;
3225;SDS011;1625;49.884;8.666;2023-02-13T09:44:12;12.87;;;11.17;;
3225;SDS011;1625;49.884;8.666;2023-02-13T09:47:18;13.57;;;10.70;;
3225;SDS011;1625;49.884;8.666;2023-02-13T09:49:53;14.00;;;10.40;;
3225;SDS011;1625;49.884;8.666;2023-02-13T09:52:22;11.87;;;10.33;;
3225;SDS011;1625;49.884;8.666;2023-02-13T09:54:47;13.23;;;11.10;;
3225;SDS011;1625;49.884;8.666;2023-02-13T09:57:19;14.20;;;11.47;;
3225;SDS011;1625;49.884;8.666;2023-02-13T10:16:42;12.40;;;11.10;;
3225;SDS011;1625;49.884;8.666;2023-02-13T10:19:28;12.43;;;11.13;;
3225;SDS011;1625;49.884;8.666;2023-02-13T10:22:14;12.33;;;11.10;;
3225;SDS011;1625;49.884;8.666;2023-02-13T10:25:07;11.63;;;10.53;;
3225;SDS011;1625;49.884;8.666;2023-02-13T10:27:42;12.20;;;11.10;;
3225;SDS011;1625;49.884;8.666;2023-02-13T10:30:23;13.70;;;10.83;;
3225;SDS011;1625;49.884;8.666;2023-02-13T10:35:44;12.57;;;11.23;;
3225;SDS011;1625;49.884;8.666;2023-02-13T10:38:24;12.87;;;11.47;;
3225;SDS011;1625;49.884;8.666;2023-02-13T10:52:32;11.23;;;9.97;;
3225;SDS011;1625;49.884;8.666;2023-02-13T10:55:01;10.57;;;9.63;;
3225;SDS011;1625;49.884;8.666;2023-02-13T10:57:40;10.63;;;9.60;;
3225;SDS011;1625;49.884;8.666;2023-02-13T11:00:17;11.67;;;10.47;;
3225;SDS011;1625;49.884;8.666;2023-02-13T11:02:47;10.87;;;9.77;;
3225;SDS011;1625;49.884;8.666;2023-02-13T11:05:15;9.80;;;8.90;;
3225;SDS011;1625;49.884;8.666;2023-02-13T11:07:43;10.80;;;9.70;;
3225;SDS011;1625;49.884;8.666;2023-02-13T11:10:20;11.70;;;10.20;;
3225;SDS011;1625;49.884;8.666;2023-02-13T11:12:47;14.23;;;11.83;;
3225;SDS011;1625;49.884;8.666;2023-02-13T11:17:46;10.70;;;9.70;;
3225;SDS011;1625;49.884;8.666;2023-02-13T11:20:26;10.00;;;9.00;;
3225;SDS011;1625;49.884;8.666;2023-02-13T11:25:54;9.30;;;8.40;;
3225;SDS011;1625;49.884;8.666;2023-02-13T11:28:24;9.40;;;8.60;;
3225;SDS011;1625;49.884;8.666;2023-02-13T11:31:36;9.47;;;8.50;;
3225;SDS011;1625;49.884;8.666;2023-02-13T11:34:24;9.20;;;8.30;;
3225;SDS011;1625;49.884;8.666;2023-02-13T11:36:54;9.80;;;8.80;;
3225;SDS011;1625;49.884;8.666;2023-02-13T11:39:41;9.53;;;8.60;;
3225;SDS011;1625;49.884;8.666;2023-02-13T11:42:14;8.40;;;7.70;;
3225;SDS011;1625;49.884;8.666;2023-02-13T11:44:41;7.47;;;6.77;;
3225;SDS011;1625;49.884;8.666;2023-02-13T11:47:07;7.00;;;6.40;;
3225;SDS011;1625;49.884;8.666;2023-02-13T11:49:36;7.10;;;6.23;;
3225;SDS011;1625;49.884;8.666;2023-02-13T11:52:25;7.07;;;6.37;;
3225;SDS011;1625;49.884;8.666;2023-02-13T11:54:57;7.53;;;6.80;;
3225;SDS011;1625;49.884;8.666;2023-02-13T11:57:33;8.93;;;7.10;;
3225;SDS011;1625;49.884;8.666;2023-02-13T12:00:24;7.50;;;6.90;;
3225;SDS011;1625;49.884;8.666;2023-02-13T12:02:51;7.77;;;7.07;;
3225;SDS011;1625;49.884;8.666;2023-02-13T12:08:04;8.13;;;7.33;;
3225;SDS011;1625;49.884;8.666;2023-02-13T12:45:09;7.87;;;6.63;;
3225;SDS011;1625;49.884;8.666;2023-02-13T12:48:33;7.67;;;6.90;;
3225;SDS011;1625;49.884;8.666;2023-02-13T12:56:30;8.50;;;5.77;;
3225;SDS011;1625;49.884;8.666;2023-02-13T12:59:23;7.87;;;6.90;;
3225;SDS011;1625;49.884;8.666;2023-02-13T13:02:43;6.60;;;5.87;;
3225;SDS011;1625;49.884;8.666;2023-02-13T13:05:23;6.67;;;6.07;;
3225;SDS011;1625;49.884;8.666;2023-02-13T13:19:45;6.33;;;5.83;;
3225;SDS011;1625;49.884;8.666;2023-02-13T13:33:00;6.63;;;6.03;;
3225;SDS011;1625;49.884;8.666;2023-02-13T13:43:01;5.87;;;5.27;;
3225;SDS011;1625;49.884;8.666;2023-02-13T13:55:57;5.77;;;5.27;;
3225;SDS011;1625;49.884;8.666;2023-02-13T13:58:20;5.30;;;4.90;;
3225;SDS011;1625;49.884;8.666;2023-02-13T14:03:43;6.07;;;5.57;;
3225;SDS011;1625;49.884;8.666;2023-02-13T14:06:10;5.60;;;5.10;;
3225;SDS011;1625;49.884;8.666;2023-02-13T14:13:57;5.43;;;4.60;;
3225;SDS011;1625;49.884;8.666;2023-02-13T14:16:41;4.93;;;4.50;;
3225;SDS011;1625;49.884;8.666;2023-02-13T14:29:52;10.33;;;9.43;;
3225;SDS011;1625;49.884;8.666;2023-02-13T14:35:19;5.37;;;4.97;;
3225;SDS011;1625;49.884;8.666;2023-02-13T14:37:49;5.37;;;4.97;;
3225;SDS011;1625;49.884;8.666;2023-02-13T14:43:00;4.90;;;4.50;;
3225;SDS011;1625;49.884;8.666;2023-02-13T14:45:45;5.37;;;4.97;;
3225;SDS011;1625;49.884;8.666;2023-02-13T14:48:20;5.13;;;4.63;;
3225;SDS011;1625;49.884;8.666;2023-02-13T14:50:52;5.03;;;4.63;;
3225;SDS011;1625;49.884;8.666;2023-02-13T14:53:34;5.10;;;4.77;;
3225;SDS011;1625;49.884;8.666;2023-02-13T14:56:12;5.40;;;4.90;;
3225;SDS011;1625;49.884;8.666;2023-02-13T15:05:01;7.37;;;4.80;;
3225;SDS011;1625;49.884;8.666;2023-02-13T15:14:53;5.20;;;4.50;;
3225;SDS011;1625;49.884;8.666;2023-02-13T15:17:25;5.40;;;5.00;;
3225;SDS011;1625;49.884;8.666;2023-02-13T15:19:54;4.97;;;4.57;;
3225;SDS011;1625;49.884;8.666;2023-02-13T15:24:56;4.97;;;4.50;;
3225;SDS011;1625;49.884;8.666;2023-02-13T15:27:26;6.60;;;4.60;;
3225;SDS011;1625;49.884;8.666;2023-02-13T15:30:04;4.13;;;3.83;;
3225;SDS011;1625;49.884;8.666;2023-02-13T15:35:41;4.93;;;4.53;;
3225;SDS011;1625;49.884;8.666;2023-02-13T15:38:18;5.30;;;4.80;;
3225;SDS011;1625;49.884;8.666;2023-02-13T15:40:46;5.63;;;5.13;;
3225;SDS011;1625;49.884;8.666;2023-02-13T15:45:50;5.40;;;5.00;;
3225;SDS011;1625;49.884;8.666;2023-02-13T15:48:16;5.47;;;5.00;;
3225;SDS011;1625;49.884;8.666;2023-02-13T15:50:43;5.57;;;5.07;;
3225;SDS011;1625;49.884;8.666;2023-02-13T15:53:12;5.80;;;5.30;;
3225;SDS011;1625;49.884;8.666;2023-02-13T15:55:40;6.60;;;6.00;;
3225;SDS011;1625;49.884;8.666;2023-02-13T15:58:08;6.17;;;5.53;;
3225;SDS011;1625;49.884;8.666;2023-02-13T16:00:38;6.10;;;5.60;;
3225;SDS011;1625;49.884;8.666;2023-02-13T16:05:50;6.30;;;5.70;;
3225;SDS011;1625;49.884;8.666;2023-02-13T16:08:34;6.07;;;5.57;;
3225;SDS011;1625;49.884;8.666;2023-02-13T16:17:23;6.53;;;5.50;;
3225;SDS011;1625;49.884;8.666;2023-02-13T16:28:23;6.40;;;5.90;;
3225;SDS011;1625;49.884;8.666;2023-02-13T17:14:58;7.55;;;6.55;;
3225;SDS011;1625;49.884;8.666;2023-02-13T17:17:26;7.63;;;6.93;;
3225;SDS011;1625;49.884;8.666;2023-02-13T17:20:07;7.77;;;7.10;;
3225;SDS011;1625;49.884;8.666;2023-02-13T17:23:19;8.07;;;7.27;;
3225;SDS011;1625;49.884;8.666;2023-02-13T17:25:47;8.53;;;7.83;;
3225;SDS011;1625;49.884;8.666;2023-02-13T18:12:45;13.17;;;11.83;;
3225;SDS011;1625;49.884;8.666;2023-02-13T18:15:12;13.50;;;12.10;;
3225;SDS011;1625;49.884;8.666;2023-02-13T18:17:39;12.37;;;11.27;;
3225;SDS011;1625;49.884;8.666;2023-02-13T18:20:42;12.40;;;11.23;;
3225;SDS011;1625;49.884;8.666;2023-02-13T18:23:39;12.30;;;11.00;;
3225;SDS011;1625;49.884;8.666;2023-02-13T18:26:05;13.20;;;11.83;;
3225;SDS011;1625;49.884;8.666;2023-02-13T18:28:33;13.50;;;11.70;;
3225;SDS011;1625;49.884;8.666;2023-02-13T18:30:58;12.80;;;11.50;;
3225;SDS011;1625;49.884;8.666;2023-02-13T18:33:25;13.83;;;12.43;;
3225;SDS011;1625;49.884;8.666;2023-02-13T18:36:02;13.40;;;12.23;;
3225;SDS011;1625;49.884;8.666;2023-02-13T18:38:28;14.80;;;13.27;;
3225;SDS011;1625;49.884;8.666;2023-02-13T18:40:53;14.43;;;13.13;;
3225;SDS011;1625;49.884;8.666;2023-02-13T18:43:19;14.93;;;13.47;;
3225;SDS011;1625;49.884;8.666;2023-02-13T18:45:45;13.83;;;12.53;;
3225;SDS011;1625;49.884;8.666;2023-02-13T18:48:11;15.13;;;13.63;;
3225;SDS011;1625;49.884;8.666;2023-02-13T18:50:38;14.37;;;12.97;;
3225;SDS011;1625;49.884;8.666;2023-02-13T18:53:04;14.40;;;13.10;;
3225;SDS011;1625;49.884;8.666;2023-02-13T18:55:30;14.00;;;12.70;;
3225;SDS011;1625;49.884;8.666;2023-02-13T18:57:56;14.70;;;13.40;;
3225;SDS011;1625;49.884;8.666;2023-02-13T19:00:23;15.80;;;14.30;;
3225;SDS011;1625;49.884;8.666;2023-02-13T19:02:49;15.60;;;14.00;;
3225;SDS011;1625;49.884;8.666;2023-02-13T19:05:15;16.43;;;14.93;;
3225;SDS011;1625;49.884;8.666;2023-02-13T19:07:41;15.33;;;13.93;;
3225;SDS011;1625;49.884;8.666;2023-02-13T19:10:06;14.73;;;13.40;;
3225;SDS011;1625;49.884;8.666;2023-02-13T19:12:32;16.27;;;14.60;;
3225;SDS011;1625;49.884;8.666;2023-02-13T19:14:58;16.50;;;15.00;;
3225;SDS011;1625;49.884;8.666;2023-02-13T19:17:23;15.63;;;14.07;;
3225;SDS011;1625;49.884;8.666;2023-02-13T19:19:49;17.50;;;14.20;;
3225;SDS011;1625;49.884;8.666;2023-02-13T19:22:15;15.20;;;13.70;;
3225;SDS011;1625;49.884;8.666;2023-02-13T19:24:41;15.77;;;14.27;;
3225;SDS011;1625;49.884;8.666;2023-02-13T19:27:07;15.13;;;13.63;;
3225;SDS011;1625;49.884;8.666;2023-02-13T19:29:32;17.30;;;15.50;;
3225;SDS011;1625;49.884;8.666;2023-02-13T19:31:58;15.30;;;13.80;;
3225;SDS011;1625;49.884;8.666;2023-02-13T19:34:23;15.23;;;13.73;;
3225;SDS011;1625;49.884;8.666;2023-02-13T19:36:49;15.07;;;13.60;;
3225;SDS011;1625;49.884;8.666;2023-02-13T19:39:15;14.60;;;13.20;;
3225;SDS011;1625;49.884;8.666;2023-02-13T19:41:40;14.13;;;12.87;;
3225;SDS011;1625;49.884;8.666;2023-02-13T19:44:07;15.13;;;13.63;;
3225;SDS011;1625;49.884;8.666;2023-02-13T19:46:33;14.80;;;13.30;;
3225;SDS011;1625;49.884;8.666;2023-02-13T19:48:59;15.03;;;13.53;;
3225;SDS011;1625;49.884;8.666;2023-02-13T19:51:26;15.33;;;13.83;;
3225;SDS011;1625;49.884;8.666;2023-02-13T19:53:54;15.67;;;13.97;;
3225;SDS011;1625;49.884;8.666;2023-02-13T19:56:21;13.63;;;12.33;;
3225;SDS011;1625;49.884;8.666;2023-02-13T19:58:47;15.10;;;13.57;;
3225;SDS011;1625;49.884;8.666;2023-02-13T20:01:14;14.13;;;12.77;;
3225;SDS011;1625;49.884;8.666;2023-02-13T20:03:42;15.40;;;13.93;;
3225;SDS011;1625;49.884;8.666;2023-02-13T20:06:09;15.33;;;13.87;;
3225;SDS011;1625;49.884;8.666;2023-02-13T20:08:38;14.63;;;13.23;;
3225;SDS011;1625;49.884;8.666;2023-02-13T20:11:07;16.30;;;14.53;;
3225;SDS011;1625;49.884;8.666;2023-02-13T20:13:34;17.07;;;15.50;;